Morrison, Minnesota
Current Conditions -  °F | °C
As of 8:14 AM on Thursday 30 Oct 2014 (Local Time) from KAIT Reporting Station
Unknown Precip Unknown Precip  
Wind Chill: 37°   Ceiling: 3000
Heat Index: 37°   Visibility: 7mi
Dew Point: 34°   Wind: 0mph
Humidity: 87%   Direction: NA
Pressure: 30.05"   Gusts: NA
Location:  46.7281°N, 93.6101°W
Report Text: KAIT 301314Z AUTO 00000KT 7SM UP BKN030 BKN040 OVC065 03/01 A3005 RMK AO2
Loading
Personal Weather Stations






























Interactive Weather Map
Tropical Storm Tracking
New forecast layout! Learn more

10-Day Weather Forecast

Advertisements
Track Severe Weather on mobile